sensor_id;sensor_type;location;lat;lon;timestamp;P1;durP1;ratioP1;P2;durP2;ratioP2
35795;SDS011;21916;52.428;13.302;2023-04-06T00:02:16;11.32;;;6.50;;
35795;SDS011;21916;52.428;13.302;2023-04-06T00:04:42;8.30;;;6.10;;
35795;SDS011;21916;52.428;13.302;2023-04-06T00:07:08;13.75;;;8.20;;
35795;SDS011;21916;52.428;13.302;2023-04-06T00:09:34;11.73;;;6.30;;
35795;SDS011;21916;52.428;13.302;2023-04-06T00:12:01;10.02;;;6.30;;
35795;SDS011;21916;52.428;13.302;2023-04-06T00:14:26;9.57;;;6.60;;
35795;SDS011;21916;52.428;13.302;2023-04-06T00:16:53;10.10;;;6.63;;
35795;SDS011;21916;52.428;13.302;2023-04-06T00:19:18;12.43;;;6.78;;
35795;SDS011;21916;52.428;13.302;2023-04-06T00:21:44;10.45;;;5.93;;
35795;SDS011;21916;52.428;13.302;2023-04-06T00:24:11;13.35;;;6.97;;
35795;SDS011;21916;52.428;13.302;2023-04-06T00:26:37;8.95;;;6.88;;
35795;SDS011;21916;52.428;13.302;2023-04-06T00:29:03;8.77;;;6.43;;
35795;SDS011;21916;52.428;13.302;2023-04-06T00:31:29;10.60;;;6.90;;
35795;SDS011;21916;52.428;13.302;2023-04-06T00:33:55;9.57;;;6.40;;
35795;SDS011;21916;52.428;13.302;2023-04-06T00:36:21;10.93;;;6.80;;
35795;SDS011;21916;52.428;13.302;2023-04-06T00:38:48;11.38;;;7.07;;
35795;SDS011;21916;52.428;13.302;2023-04-06T00:41:14;10.23;;;6.82;;
35795;SDS011;21916;52.428;13.302;2023-04-06T00:43:40;11.75;;;6.70;;
35795;SDS011;21916;52.428;13.302;2023-04-06T00:46:06;16.23;;;7.40;;
35795;SDS011;21916;52.428;13.302;2023-04-06T00:48:33;11.90;;;6.53;;
35795;SDS011;21916;52.428;13.302;2023-04-06T00:51:00;9.75;;;6.30;;
35795;SDS011;21916;52.428;13.302;2023-04-06T00:53:27;9.00;;;6.38;;
35795;SDS011;21916;52.428;13.302;2023-04-06T00:55:53;12.23;;;6.45;;
35795;SDS011;21916;52.428;13.302;2023-04-06T00:58:21;11.10;;;6.40;;
35795;SDS011;21916;52.428;13.302;2023-04-06T01:00:53;11.17;;;6.57;;
35795;SDS011;21916;52.428;13.302;2023-04-06T01:03:22;9.13;;;6.20;;
35795;SDS011;21916;52.428;13.302;2023-04-06T01:05:48;19.55;;;7.25;;
35795;SDS011;21916;52.428;13.302;2023-04-06T01:08:19;13.05;;;6.57;;
35795;SDS011;21916;52.428;13.302;2023-04-06T01:10:47;9.73;;;6.50;;
35795;SDS011;21916;52.428;13.302;2023-04-06T01:13:24;17.75;;;7.40;;
35795;SDS011;21916;52.428;13.302;2023-04-06T01:15:57;14.45;;;7.47;;
35795;SDS011;21916;52.428;13.302;2023-04-06T01:18:30;11.30;;;6.45;;
35795;SDS011;21916;52.428;13.302;2023-04-06T01:21:10;12.88;;;6.68;;
35795;SDS011;21916;52.428;13.302;2023-04-06T01:23:45;10.52;;;6.63;;
35795;SDS011;21916;52.428;13.302;2023-04-06T01:26:15;12.95;;;6.95;;
35795;SDS011;21916;52.428;13.302;2023-04-06T01:28:42;12.00;;;7.60;;
35795;SDS011;21916;52.428;13.302;2023-04-06T01:31:21;12.77;;;7.43;;
35795;SDS011;21916;52.428;13.302;2023-04-06T01:33:50;11.77;;;7.35;;
35795;SDS011;21916;52.428;13.302;2023-04-06T01:36:19;9.45;;;6.70;;
35795;SDS011;21916;52.428;13.302;2023-04-06T01:38:53;10.27;;;7.13;;
35795;SDS011;21916;52.428;13.302;2023-04-06T01:41:25;11.05;;;6.95;;
35795;SDS011;21916;52.428;13.302;2023-04-06T01:43:52;12.18;;;6.68;;
35795;SDS011;21916;52.428;13.302;2023-04-06T01:46:22;9.75;;;7.18;;
35795;SDS011;21916;52.428;13.302;2023-04-06T01:48:49;10.70;;;7.35;;
35795;SDS011;21916;52.428;13.302;2023-04-06T01:51:28;13.93;;;6.95;;
35795;SDS011;21916;52.428;13.302;2023-04-06T01:53:58;9.45;;;6.90;;
35795;SDS011;21916;52.428;13.302;2023-04-06T01:56:33;9.30;;;7.25;;
35795;SDS011;21916;52.428;13.302;2023-04-06T01:59:13;11.65;;;6.80;;
35795;SDS011;21916;52.428;13.302;2023-04-06T02:01:42;11.07;;;7.53;;
35795;SDS011;21916;52.428;13.302;2023-04-06T02:04:08;14.40;;;7.38;;
35795;SDS011;21916;52.428;13.302;2023-04-06T02:06:34;11.93;;;7.22;;
35795;SDS011;21916;52.428;13.302;2023-04-06T02:09:02;12.43;;;7.65;;
35795;SDS011;21916;52.428;13.302;2023-04-06T02:11:28;12.98;;;6.97;;
35795;SDS011;21916;52.428;13.302;2023-04-06T02:13:55;10.98;;;7.25;;
35795;SDS011;21916;52.428;13.302;2023-04-06T02:16:25;13.63;;;7.63;;
35795;SDS011;21916;52.428;13.302;2023-04-06T02:18:52;16.98;;;7.75;;
35795;SDS011;21916;52.428;13.302;2023-04-06T02:21:17;12.40;;;7.80;;
35795;SDS011;21916;52.428;13.302;2023-04-06T02:23:46;14.35;;;7.90;;
35795;SDS011;21916;52.428;13.302;2023-04-06T02:26:13;11.40;;;7.75;;
35795;SDS011;21916;52.428;13.302;2023-04-06T02:28:39;12.73;;;7.57;;
35795;SDS011;21916;52.428;13.302;2023-04-06T02:31:05;15.05;;;8.15;;
35795;SDS011;21916;52.428;13.302;2023-04-06T02:33:31;11.80;;;7.82;;
35795;SDS011;21916;52.428;13.302;2023-04-06T02:35:57;13.52;;;7.95;;
35795;SDS011;21916;52.428;13.302;2023-04-06T02:38:23;15.55;;;7.68;;
35795;SDS011;21916;52.428;13.302;2023-04-06T02:40:51;10.70;;;7.30;;
35795;SDS011;21916;52.428;13.302;2023-04-06T02:43:21;12.75;;;7.40;;
35795;SDS011;21916;52.428;13.302;2023-04-06T02:45:51;13.00;;;8.20;;
35795;SDS011;21916;52.428;13.302;2023-04-06T02:48:19;13.00;;;7.28;;
35795;SDS011;21916;52.428;13.302;2023-04-06T02:50:45;12.90;;;7.85;;
35795;SDS011;21916;52.428;13.302;2023-04-06T02:53:11;14.15;;;8.38;;
35795;SDS011;21916;52.428;13.302;2023-04-06T02:55:39;13.40;;;7.57;;
35795;SDS011;21916;52.428;13.302;2023-04-06T02:58:05;16.98;;;8.27;;
35795;SDS011;21916;52.428;13.302;2023-04-06T03:00:41;11.38;;;6.80;;
35795;SDS011;21916;52.428;13.302;2023-04-06T03:03:07;14.30;;;8.02;;
35795;SDS011;21916;52.428;13.302;2023-04-06T03:05:33;10.20;;;7.28;;
35795;SDS011;21916;52.428;13.302;2023-04-06T03:08:00;12.63;;;7.68;;
35795;SDS011;21916;52.428;13.302;2023-04-06T03:10:39;12.02;;;7.20;;
35795;SDS011;21916;52.428;13.302;2023-04-06T03:13:05;12.20;;;7.13;;
35795;SDS011;21916;52.428;13.302;2023-04-06T03:16:04;11.77;;;7.10;;
35795;SDS011;21916;52.428;13.302;2023-04-06T03:18:31;17.60;;;7.45;;
35795;SDS011;21916;52.428;13.302;2023-04-06T03:20:57;14.15;;;8.00;;
35795;SDS011;21916;52.428;13.302;2023-04-06T03:23:32;12.00;;;7.47;;
35795;SDS011;21916;52.428;13.302;2023-04-06T03:26:01;12.05;;;7.68;;
35795;SDS011;21916;52.428;13.302;2023-04-06T03:28:28;11.38;;;7.35;;
35795;SDS011;21916;52.428;13.302;2023-04-06T03:31:01;13.27;;;7.38;;
35795;SDS011;21916;52.428;13.302;2023-04-06T03:33:54;13.45;;;7.43;;
35795;SDS011;21916;52.428;13.302;2023-04-06T03:36:25;12.57;;;7.30;;
35795;SDS011;21916;52.428;13.302;2023-04-06T03:38:54;12.02;;;7.75;;
35795;SDS011;21916;52.428;13.302;2023-04-06T03:41:20;13.25;;;7.90;;
35795;SDS011;21916;52.428;13.302;2023-04-06T03:43:56;15.32;;;7.55;;
35795;SDS011;21916;52.428;13.302;2023-04-06T03:46:22;10.75;;;7.75;;
35795;SDS011;21916;52.428;13.302;2023-04-06T03:48:51;14.70;;;7.57;;
35795;SDS011;21916;52.428;13.302;2023-04-06T03:51:19;12.30;;;7.65;;
35795;SDS011;21916;52.428;13.302;2023-04-06T03:53:47;15.90;;;8.63;;
35795;SDS011;21916;52.428;13.302;2023-04-06T03:56:13;12.23;;;7.68;;
35795;SDS011;21916;52.428;13.302;2023-04-06T03:58:39;15.70;;;8.30;;
35795;SDS011;21916;52.428;13.302;2023-04-06T04:01:05;16.02;;;8.27;;
35795;SDS011;21916;52.428;13.302;2023-04-06T04:03:33;14.68;;;8.50;;
35795;SDS011;21916;52.428;13.302;2023-04-06T04:05:59;16.17;;;7.80;;
35795;SDS011;21916;52.428;13.302;2023-04-06T04:08:25;12.25;;;8.55;;
35795;SDS011;21916;52.428;13.302;2023-04-06T04:10:51;12.50;;;7.35;;
35795;SDS011;21916;52.428;13.302;2023-04-06T04:13:18;12.90;;;7.80;;
35795;SDS011;21916;52.428;13.302;2023-04-06T04:15:47;15.13;;;7.70;;
35795;SDS011;21916;52.428;13.302;2023-04-06T04:18:14;13.30;;;9.45;;
35795;SDS011;21916;52.428;13.302;2023-04-06T04:20:40;11.38;;;7.93;;
35795;SDS011;21916;52.428;13.302;2023-04-06T04:23:09;23.25;;;9.52;;
35795;SDS011;21916;52.428;13.302;2023-04-06T04:25:35;12.80;;;8.05;;
35795;SDS011;21916;52.428;13.302;2023-04-06T04:28:01;14.82;;;9.27;;
35795;SDS011;21916;52.428;13.302;2023-04-06T04:30:28;16.25;;;8.73;;
35795;SDS011;21916;52.428;13.302;2023-04-06T04:32:55;16.58;;;8.25;;
35795;SDS011;21916;52.428;13.302;2023-04-06T04:35:22;13.55;;;7.97;;
35795;SDS011;21916;52.428;13.302;2023-04-06T04:37:49;13.27;;;8.63;;
35795;SDS011;21916;52.428;13.302;2023-04-06T04:40:15;14.20;;;7.78;;
35795;SDS011;21916;52.428;13.302;2023-04-06T04:42:49;12.98;;;9.93;;
35795;SDS011;21916;52.428;13.302;2023-04-06T04:45:30;14.00;;;8.88;;
35795;SDS011;21916;52.428;13.302;2023-04-06T04:47:59;11.60;;;8.40;;
35795;SDS011;21916;52.428;13.302;2023-04-06T04:50:32;15.32;;;9.25;;
35795;SDS011;21916;52.428;13.302;2023-04-06T04:52:59;16.95;;;9.80;;
35795;SDS011;21916;52.428;13.302;2023-04-06T04:55:26;16.40;;;10.05;;
35795;SDS011;21916;52.428;13.302;2023-04-06T04:57:57;16.90;;;10.85;;
35795;SDS011;21916;52.428;13.302;2023-04-06T05:00:45;19.67;;;11.70;;
35795;SDS011;21916;52.428;13.302;2023-04-06T05:03:19;14.32;;;10.57;;
35795;SDS011;21916;52.428;13.302;2023-04-06T05:05:56;18.75;;;11.20;;
35795;SDS011;21916;52.428;13.302;2023-04-06T05:08:25;16.98;;;11.13;;
35795;SDS011;21916;52.428;13.302;2023-04-06T05:10:52;19.17;;;11.38;;
35795;SDS011;21916;52.428;13.302;2023-04-06T05:13:19;13.38;;;8.93;;
35795;SDS011;21916;52.428;13.302;2023-04-06T05:15:47;21.27;;;11.85;;
35795;SDS011;21916;52.428;13.302;2023-04-06T05:18:25;17.42;;;9.70;;
35795;SDS011;21916;52.428;13.302;2023-04-06T05:20:53;18.77;;;11.05;;
35795;SDS011;21916;52.428;13.302;2023-04-06T05:23:27;14.90;;;10.30;;
35795;SDS011;21916;52.428;13.302;2023-04-06T05:25:53;15.05;;;10.77;;
35795;SDS011;21916;52.428;13.302;2023-04-06T05:28:21;14.20;;;10.95;;
35795;SDS011;21916;52.428;13.302;2023-04-06T05:30:48;18.33;;;10.68;;
35795;SDS011;21916;52.428;13.302;2023-04-06T05:33:15;21.15;;;11.20;;
35795;SDS011;21916;52.428;13.302;2023-04-06T05:35:58;16.30;;;11.13;;
35795;SDS011;21916;52.428;13.302;2023-04-06T05:38:26;23.83;;;11.68;;
35795;SDS011;21916;52.428;13.302;2023-04-06T05:40:55;21.55;;;11.68;;
35795;SDS011;21916;52.428;13.302;2023-04-06T05:43:24;23.75;;;12.18;;
35795;SDS011;21916;52.428;13.302;2023-04-06T05:45:54;18.75;;;12.70;;
35795;SDS011;21916;52.428;13.302;2023-04-06T05:48:20;23.20;;;13.50;;
35795;SDS011;21916;52.428;13.302;2023-04-06T05:50:49;24.55;;;13.10;;
35795;SDS011;21916;52.428;13.302;2023-04-06T05:53:19;21.30;;;13.73;;
35795;SDS011;21916;52.428;13.302;2023-04-06T05:55:51;23.00;;;13.27;;
35795;SDS011;21916;52.428;13.302;2023-04-06T05:58:19;18.80;;;13.18;;
35795;SDS011;21916;52.428;13.302;2023-04-06T06:00:48;18.65;;;12.10;;
35795;SDS011;21916;52.428;13.302;2023-04-06T06:03:16;16.92;;;12.68;;
35795;SDS011;21916;52.428;13.302;2023-04-06T06:05:48;22.17;;;11.82;;
35795;SDS011;21916;52.428;13.302;2023-04-06T06:08:21;20.35;;;12.30;;
35795;SDS011;21916;52.428;13.302;2023-04-06T06:10:50;15.38;;;11.95;;
35795;SDS011;21916;52.428;13.302;2023-04-06T06:13:20;14.63;;;10.90;;
35795;SDS011;21916;52.428;13.302;2023-04-06T06:15:47;15.82;;;10.75;;
35795;SDS011;21916;52.428;13.302;2023-04-06T06:18:14;15.00;;;9.15;;
35795;SDS011;21916;52.428;13.302;2023-04-06T06:20:41;13.30;;;9.73;;
35795;SDS011;21916;52.428;13.302;2023-04-06T06:23:07;12.85;;;9.50;;
35795;SDS011;21916;52.428;13.302;2023-04-06T06:25:34;13.95;;;9.82;;
35795;SDS011;21916;52.428;13.302;2023-04-06T06:28:01;13.65;;;9.65;;
35795;SDS011;21916;52.428;13.302;2023-04-06T06:30:29;12.88;;;8.85;;
35795;SDS011;21916;52.428;13.302;2023-04-06T06:32:56;15.90;;;8.60;;
35795;SDS011;21916;52.428;13.302;2023-04-06T06:35:22;12.25;;;8.85;;
35795;SDS011;21916;52.428;13.302;2023-04-06T06:37:48;16.52;;;7.55;;
35795;SDS011;21916;52.428;13.302;2023-04-06T06:40:18;10.27;;;8.25;;
35795;SDS011;21916;52.428;13.302;2023-04-06T06:42:47;12.13;;;8.15;;
35795;SDS011;21916;52.428;13.302;2023-04-06T06:45:25;11.13;;;7.88;;
35795;SDS011;21916;52.428;13.302;2023-04-06T06:47:51;11.10;;;7.57;;
35795;SDS011;21916;52.428;13.302;2023-04-06T06:50:17;11.88;;;7.70;;
35795;SDS011;21916;52.428;13.302;2023-04-06T06:52:44;21.35;;;8.02;;
35795;SDS011;21916;52.428;13.302;2023-04-06T06:55:10;13.15;;;7.60;;
35795;SDS011;21916;52.428;13.302;2023-04-06T06:57:37;12.13;;;7.53;;
35795;SDS011;21916;52.428;13.302;2023-04-06T07:00:05;11.75;;;6.95;;
35795;SDS011;21916;52.428;13.302;2023-04-06T07:02:33;12.35;;;7.15;;
35795;SDS011;21916;52.428;13.302;2023-04-06T07:05:01;14.20;;;6.78;;
35795;SDS011;21916;52.428;13.302;2023-04-06T07:07:30;9.30;;;6.78;;
35795;SDS011;21916;52.428;13.302;2023-04-06T07:09:58;8.90;;;6.45;;
35795;SDS011;21916;52.428;13.302;2023-04-06T07:12:25;10.85;;;6.55;;
35795;SDS011;21916;52.428;13.302;2023-04-06T07:14:51;11.80;;;6.30;;
35795;SDS011;21916;52.428;13.302;2023-04-06T07:17:18;10.18;;;6.57;;
35795;SDS011;21916;52.428;13.302;2023-04-06T07:19:44;9.65;;;6.50;;
35795;SDS011;21916;52.428;13.302;2023-04-06T07:22:11;10.60;;;6.28;;
35795;SDS011;21916;52.428;13.302;2023-04-06T07:24:37;11.57;;;7.13;;
35795;SDS011;21916;52.428;13.302;2023-04-06T07:27:03;15.55;;;6.70;;
35795;SDS011;21916;52.428;13.302;2023-04-06T07:29:29;13.52;;;6.43;;
35795;SDS011;21916;52.428;13.302;2023-04-06T07:31:55;9.90;;;6.30;;
35795;SDS011;21916;52.428;13.302;2023-04-06T07:34:21;8.93;;;6.05;;
35795;SDS011;21916;52.428;13.302;2023-04-06T07:36:49;11.13;;;5.90;;
35795;SDS011;21916;52.428;13.302;2023-04-06T07:39:18;11.98;;;6.53;;
35795;SDS011;21916;52.428;13.302;2023-04-06T07:41:44;9.82;;;5.63;;
35795;SDS011;21916;52.428;13.302;2023-04-06T07:44:10;23.80;;;7.95;;
35795;SDS011;21916;52.428;13.302;2023-04-06T07:46:37;29.55;;;15.45;;
35795;SDS011;21916;52.428;13.302;2023-04-06T07:49:04;18.10;;;10.13;;
35795;SDS011;21916;52.428;13.302;2023-04-06T07:51:32;17.25;;;8.18;;
35795;SDS011;21916;52.428;13.302;2023-04-06T07:54:00;10.35;;;5.20;;
35795;SDS011;21916;52.428;13.302;2023-04-06T07:56:26;10.88;;;5.30;;
35795;SDS011;21916;52.428;13.302;2023-04-06T07:58:52;14.70;;;6.32;;
35795;SDS011;21916;52.428;13.302;2023-04-06T08:01:21;9.95;;;5.82;;
35795;SDS011;21916;52.428;13.302;2023-04-06T08:03:47;8.20;;;4.72;;
35795;SDS011;21916;52.428;13.302;2023-04-06T08:06:14;7.70;;;5.15;;
35795;SDS011;21916;52.428;13.302;2023-04-06T08:08:41;8.02;;;4.63;;
35795;SDS011;21916;52.428;13.302;2023-04-06T08:11:07;9.70;;;5.25;;
35795;SDS011;21916;52.428;13.302;2023-04-06T08:13:33;12.57;;;4.78;;
35795;SDS011;21916;52.428;13.302;2023-04-06T08:16:00;8.60;;;4.43;;
35795;SDS011;21916;52.428;13.302;2023-04-06T08:18:27;8.57;;;4.13;;
35795;SDS011;21916;52.428;13.302;2023-04-06T08:20:55;9.10;;;4.07;;
35795;SDS011;21916;52.428;13.302;2023-04-06T08:23:22;9.43;;;4.93;;
35795;SDS011;21916;52.428;13.302;2023-04-06T08:25:48;7.53;;;4.53;;
35795;SDS011;21916;52.428;13.302;2023-04-06T08:28:14;8.07;;;4.00;;
35795;SDS011;21916;52.428;13.302;2023-04-06T08:30:40;8.75;;;4.07;;
35795;SDS011;21916;52.428;13.302;2023-04-06T08:33:07;6.93;;;3.55;;
35795;SDS011;21916;52.428;13.302;2023-04-06T08:35:34;7.65;;;4.10;;
35795;SDS011;21916;52.428;13.302;2023-04-06T08:38:00;7.97;;;3.92;;
35795;SDS011;21916;52.428;13.302;2023-04-06T08:40:26;5.20;;;3.42;;
35795;SDS011;21916;52.428;13.302;2023-04-06T08:42:56;6.95;;;3.58;;
35795;SDS011;21916;52.428;13.302;2023-04-06T08:45:27;5.30;;;3.53;;
35795;SDS011;21916;52.428;13.302;2023-04-06T08:47:53;7.50;;;4.28;;
35795;SDS011;21916;52.428;13.302;2023-04-06T08:50:25;9.60;;;3.55;;
35795;SDS011;21916;52.428;13.302;2023-04-06T08:52:52;11.98;;;3.72;;
35795;SDS011;21916;52.428;13.302;2023-04-06T08:55:18;5.15;;;3.22;;
35795;SDS011;21916;52.428;13.302;2023-04-06T08:57:44;9.07;;;3.50;;
35795;SDS011;21916;52.428;13.302;2023-04-06T09:00:13;9.32;;;3.47;;
35795;SDS011;21916;52.428;13.302;2023-04-06T09:02:42;5.40;;;2.70;;
35795;SDS011;21916;52.428;13.302;2023-04-06T09:05:11;7.18;;;3.35;;
35795;SDS011;21916;52.428;13.302;2023-04-06T09:07:38;4.78;;;2.50;;
35795;SDS011;21916;52.428;13.302;2023-04-06T09:10:05;7.03;;;3.97;;
35795;SDS011;21916;52.428;13.302;2023-04-06T09:12:32;6.97;;;2.97;;
35795;SDS011;21916;52.428;13.302;2023-04-06T09:14:59;7.18;;;2.70;;
35795;SDS011;21916;52.428;13.302;2023-04-06T09:17:30;4.68;;;2.95;;
35795;SDS011;21916;52.428;13.302;2023-04-06T09:20:02;7.30;;;2.75;;
35795;SDS011;21916;52.428;13.302;2023-04-06T09:22:35;4.32;;;3.28;;
35795;SDS011;21916;52.428;13.302;2023-04-06T09:25:02;4.30;;;3.30;;
35795;SDS011;21916;52.428;13.302;2023-04-06T09:27:32;8.52;;;2.88;;
35795;SDS011;21916;52.428;13.302;2023-04-06T09:30:04;3.92;;;2.50;;
35795;SDS011;21916;52.428;13.302;2023-04-06T09:32:32;5.68;;;2.78;;
35795;SDS011;21916;52.428;13.302;2023-04-06T09:35:10;3.60;;;2.50;;
35795;SDS011;21916;52.428;13.302;2023-04-06T09:37:37;5.47;;;2.78;;
35795;SDS011;21916;52.428;13.302;2023-04-06T09:40:04;5.50;;;2.88;;
35795;SDS011;21916;52.428;13.302;2023-04-06T09:42:32;4.15;;;2.28;;
35795;SDS011;21916;52.428;13.302;2023-04-06T09:45:00;4.90;;;2.45;;
35795;SDS011;21916;52.428;13.302;2023-04-06T09:47:27;3.85;;;2.47;;
35795;SDS011;21916;52.428;13.302;2023-04-06T09:49:57;10.15;;;2.80;;
35795;SDS011;21916;52.428;13.302;2023-04-06T09:52:58;9.57;;;3.10;;
35795;SDS011;21916;52.428;13.302;2023-04-06T09:55:23;4.43;;;2.58;;
35795;SDS011;21916;52.428;13.302;2023-04-06T09:57:58;3.83;;;2.10;;
35795;SDS011;21916;52.428;13.302;2023-04-06T10:00:42;5.10;;;2.67;;
35795;SDS011;21916;52.428;13.302;2023-04-06T10:03:36;4.40;;;2.22;;
35795;SDS011;21916;52.428;13.302;2023-04-06T10:06:26;3.38;;;2.22;;
35795;SDS011;21916;52.428;13.302;2023-04-06T10:08:54;3.88;;;2.35;;
35795;SDS011;21916;52.428;13.302;2023-04-06T10:11:23;2.65;;;1.58;;
35795;SDS011;21916;52.428;13.302;2023-04-06T10:13:49;4.95;;;2.10;;
35795;SDS011;21916;52.428;13.302;2023-04-06T10:16:16;3.38;;;1.73;;
35795;SDS011;21916;52.428;13.302;2023-04-06T10:18:44;4.22;;;2.13;;
35795;SDS011;21916;52.428;13.302;2023-04-06T10:21:14;4.65;;;2.33;;
35795;SDS011;21916;52.428;13.302;2023-04-06T10:23:48;4.18;;;2.22;;
35795;SDS011;21916;52.428;13.302;2023-04-06T10:26:19;6.15;;;2.97;;
35795;SDS011;21916;52.428;13.302;2023-04-06T10:28:47;4.32;;;2.00;;
35795;SDS011;21916;52.428;13.302;2023-04-06T10:31:14;4.20;;;2.00;;
35795;SDS011;21916;52.428;13.302;2023-04-06T10:33:41;7.18;;;2.65;;
35795;SDS011;21916;52.428;13.302;2023-04-06T10:38:38;5.88;;;2.80;;
35795;SDS011;21916;52.428;13.302;2023-04-06T10:41:07;4.82;;;2.83;;
35795;SDS011;21916;52.428;13.302;2023-04-06T10:43:35;6.95;;;2.75;;
35795;SDS011;21916;52.428;13.302;2023-04-06T10:46:03;3.80;;;2.50;;
35795;SDS011;21916;52.428;13.302;2023-04-06T10:48:41;6.07;;;2.00;;
35795;SDS011;21916;52.428;13.302;2023-04-06T10:51:15;3.53;;;2.00;;
35795;SDS011;21916;52.428;13.302;2023-04-06T10:53:46;5.35;;;2.13;;
35795;SDS011;21916;52.428;13.302;2023-04-06T10:56:15;6.05;;;2.15;;
35795;SDS011;21916;52.428;13.302;2023-04-06T10:58:45;5.45;;;2.33;;
35795;SDS011;21916;52.428;13.302;2023-04-06T11:01:13;5.28;;;2.42;;
35795;SDS011;21916;52.428;13.302;2023-04-06T11:03:44;4.53;;;2.22;;
35795;SDS011;21916;52.428;13.302;2023-04-06T11:06:10;3.38;;;2.15;;
35795;SDS011;21916;52.428;13.302;2023-04-06T11:08:43;3.47;;;2.45;;
35795;SDS011;21916;52.428;13.302;2023-04-06T11:11:10;5.55;;;2.28;;
35795;SDS011;21916;52.428;13.302;2023-04-06T11:13:42;3.15;;;2.05;;
35795;SDS011;21916;52.428;13.302;2023-04-06T11:16:13;4.43;;;2.60;;
35795;SDS011;21916;52.428;13.302;2023-04-06T11:18:54;3.53;;;2.58;;
35795;SDS011;21916;52.428;13.302;2023-04-06T11:24:40;5.22;;;2.35;;
35795;SDS011;21916;52.428;13.302;2023-04-06T11:26:59;3.35;;;2.10;;
35795;SDS011;21916;52.428;13.302;2023-04-06T11:29:30;3.42;;;2.47;;
35795;SDS011;21916;52.428;13.302;2023-04-06T11:32:00;5.05;;;2.40;;
35795;SDS011;21916;52.428;13.302;2023-04-06T11:34:28;5.15;;;2.20;;
35795;SDS011;21916;52.428;13.302;2023-04-06T11:36:59;3.55;;;2.50;;
35795;SDS011;21916;52.428;13.302;2023-04-06T11:39:27;3.45;;;2.58;;
35795;SDS011;21916;52.428;13.302;2023-04-06T11:41:54;3.70;;;2.03;;
35795;SDS011;21916;52.428;13.302;2023-04-06T11:47:00;2.60;;;2.10;;
35795;SDS011;21916;52.428;13.302;2023-04-06T11:49:28;4.82;;;2.70;;
35795;SDS011;21916;52.428;13.302;2023-04-06T11:51:55;4.30;;;3.08;;
35795;SDS011;21916;52.428;13.302;2023-04-06T11:57:20;3.95;;;2.60;;
35795;SDS011;21916;52.428;13.302;2023-04-06T11:59:50;3.30;;;2.28;;
35795;SDS011;21916;52.428;13.302;2023-04-06T12:02:17;2.97;;;2.25;;
35795;SDS011;21916;52.428;13.302;2023-04-06T12:04:44;5.22;;;2.33;;
35795;SDS011;21916;52.428;13.302;2023-04-06T12:07:11;3.50;;;2.50;;
35795;SDS011;21916;52.428;13.302;2023-04-06T12:09:37;9.38;;;2.80;;
35795;SDS011;21916;52.428;13.302;2023-04-06T12:12:04;2.58;;;2.30;;
35795;SDS011;21916;52.428;13.302;2023-04-06T12:14:30;4.20;;;2.83;;
35795;SDS011;21916;52.428;13.302;2023-04-06T12:16:56;4.55;;;2.88;;
35795;SDS011;21916;52.428;13.302;2023-04-06T12:19:23;3.55;;;2.65;;
35795;SDS011;21916;52.428;13.302;2023-04-06T12:21:51;3.50;;;2.35;;
35795;SDS011;21916;52.428;13.302;2023-04-06T12:24:18;3.92;;;2.55;;
35795;SDS011;21916;52.428;13.302;2023-04-06T12:26:45;4.32;;;2.65;;
35795;SDS011;21916;52.428;13.302;2023-04-06T12:29:11;4.63;;;2.72;;
35795;SDS011;21916;52.428;13.302;2023-04-06T12:31:38;3.22;;;2.60;;
35795;SDS011;21916;52.428;13.302;2023-04-06T12:34:06;9.30;;;3.30;;
35795;SDS011;21916;52.428;13.302;2023-04-06T12:36:32;11.40;;;3.33;;
35795;SDS011;21916;52.428;13.302;2023-04-06T12:39:00;3.47;;;3.10;;
35795;SDS011;21916;52.428;13.302;2023-04-06T12:41:27;3.25;;;2.80;;
35795;SDS011;21916;52.428;13.302;2023-04-06T12:43:54;2.63;;;2.40;;
35795;SDS011;21916;52.428;13.302;2023-04-06T12:46:21;4.88;;;3.33;;
35795;SDS011;21916;52.428;13.302;2023-04-06T12:48:47;3.63;;;2.05;;
35795;SDS011;21916;52.428;13.302;2023-04-06T12:51:13;4.95;;;2.58;;
35795;SDS011;21916;52.428;13.302;2023-04-06T12:53:40;3.92;;;2.50;;
35795;SDS011;21916;52.428;13.302;2023-04-06T12:56:13;3.35;;;2.35;;
35795;SDS011;21916;52.428;13.302;2023-04-06T12:58:40;3.47;;;3.13;;
35795;SDS011;21916;52.428;13.302;2023-04-06T13:01:07;3.22;;;2.20;;
35795;SDS011;21916;52.428;13.302;2023-04-06T13:03:33;4.55;;;2.25;;
35795;SDS011;21916;52.428;13.302;2023-04-06T13:06:00;5.20;;;2.20;;
35795;SDS011;21916;52.428;13.302;2023-04-06T13:08:26;4.97;;;2.58;;
35795;SDS011;21916;52.428;13.302;2023-04-06T13:10:53;3.20;;;2.17;;
35795;SDS011;21916;52.428;13.302;2023-04-06T13:13:21;5.72;;;2.50;;
35795;SDS011;21916;52.428;13.302;2023-04-06T13:15:50;3.13;;;2.58;;
35795;SDS011;21916;52.428;13.302;2023-04-06T13:18:20;3.65;;;2.38;;
35795;SDS011;21916;52.428;13.302;2023-04-06T13:20:48;3.55;;;2.85;;
35795;SDS011;21916;52.428;13.302;2023-04-06T13:23:14;2.25;;;2.00;;
35795;SDS011;21916;52.428;13.302;2023-04-06T13:25:41;4.82;;;2.50;;
35795;SDS011;21916;52.428;13.302;2023-04-06T13:28:08;3.08;;;2.45;;
35795;SDS011;21916;52.428;13.302;2023-04-06T13:30:35;3.50;;;2.65;;
35795;SDS011;21916;52.428;13.302;2023-04-06T13:33:01;4.97;;;2.13;;
35795;SDS011;21916;52.428;13.302;2023-04-06T13:35:28;3.63;;;2.22;;
35795;SDS011;21916;52.428;13.302;2023-04-06T13:37:54;7.15;;;2.10;;
35795;SDS011;21916;52.428;13.302;2023-04-06T13:40:20;2.67;;;2.25;;
35795;SDS011;21916;52.428;13.302;2023-04-06T13:42:46;3.35;;;2.63;;
35795;SDS011;21916;52.428;13.302;2023-04-06T13:45:12;3.83;;;3.03;;
35795;SDS011;21916;52.428;13.302;2023-04-06T13:47:39;3.78;;;2.88;;
35795;SDS011;21916;52.428;13.302;2023-04-06T13:50:07;3.33;;;2.45;;
35795;SDS011;21916;52.428;13.302;2023-04-06T13:52:33;6.40;;;3.00;;
35795;SDS011;21916;52.428;13.302;2023-04-06T13:55:01;4.22;;;2.65;;
35795;SDS011;21916;52.428;13.302;2023-04-06T13:57:27;8.98;;;3.35;;
35795;SDS011;21916;52.428;13.302;2023-04-06T13:59:55;3.30;;;2.80;;
35795;SDS011;21916;52.428;13.302;2023-04-06T14:02:21;2.85;;;2.55;;
35795;SDS011;21916;52.428;13.302;2023-04-06T14:04:52;7.43;;;2.80;;
35795;SDS011;21916;52.428;13.302;2023-04-06T14:07:20;3.58;;;2.30;;
35795;SDS011;21916;52.428;13.302;2023-04-06T14:09:47;2.78;;;2.10;;
35795;SDS011;21916;52.428;13.302;2023-04-06T14:12:13;4.07;;;2.28;;
35795;SDS011;21916;52.428;13.302;2023-04-06T14:14:39;3.47;;;2.20;;
35795;SDS011;21916;52.428;13.302;2023-04-06T14:17:04;4.47;;;2.60;;
35795;SDS011;21916;52.428;13.302;2023-04-06T14:19:30;3.20;;;2.58;;
35795;SDS011;21916;52.428;13.302;2023-04-06T14:21:57;3.15;;;2.10;;
35795;SDS011;21916;52.428;13.302;2023-04-06T14:24:24;4.55;;;2.22;;
35795;SDS011;21916;52.428;13.302;2023-04-06T14:26:50;5.18;;;2.58;;
35795;SDS011;21916;52.428;13.302;2023-04-06T14:29:16;2.78;;;2.22;;
35795;SDS011;21916;52.428;13.302;2023-04-06T14:31:44;7.85;;;2.60;;
35795;SDS011;21916;52.428;13.302;2023-04-06T14:34:12;3.63;;;2.03;;
35795;SDS011;21916;52.428;13.302;2023-04-06T14:36:38;3.55;;;2.35;;
35795;SDS011;21916;52.428;13.302;2023-04-06T14:39:04;3.17;;;2.22;;
35795;SDS011;21916;52.428;13.302;2023-04-06T14:41:32;2.88;;;2.00;;
35795;SDS011;21916;52.428;13.302;2023-04-06T14:43:59;2.95;;;2.50;;
35795;SDS011;21916;52.428;13.302;2023-04-06T14:46:25;3.03;;;2.40;;